Time;durP1;ratioP1;P1;durP2;ratioP2;P2;SDS_P1;SDS_P2;PMS_P1;PMS_P2;Temp;Humidity;BMP_temperature;BMP_pressure;BME280_temperature;BME280_humidity;BME280_pressure;Samples;Min_cycle;Max_cycle;Signal;HPM_P1;HPM_P2
2023/11/08 00:01:36;;;;;;;7.10;2.83;;;;;;;;;;5078260;28;20020;-81
2023/11/08 00:04:02;;;;;;;6.18;2.95;;;;;;;;;;5079177;28;20401;-81
2023/11/08 00:06:28;;;;;;;6.65;2.10;;;;;;;;;;5079001;28;20020;-81
2023/11/08 00:08:54;;;;;;;7.75;1.95;;;;;;;;;;5079108;28;20094;-81
2023/11/08 00:11:23;;;;;;;2.78;1.80;;;;;;;;;;5078724;28;20052;-81
2023/11/08 00:13:50;;;;;;;3.53;2.05;;;;;;;;;;5078532;28;20534;-81
2023/11/08 00:16:17;;;;;;;4.03;2.22;;;3.70;99.90;;;;;;5076771;28;20665;-81
2023/11/08 00:18:43;;;;;;;2.95;2.50;;;;;;;;;;5077403;28;20202;-81
2023/11/08 00:21:09;;;;;;;4.40;1.92;;;;;;;;;;5077559;28;20028;-81
2023/11/08 00:23:35;;;;;;;5.18;2.78;;;;;;;;;;5077151;28;20036;-80
2023/11/08 00:26:01;;;;;;;7.53;3.33;;;;;;;;;;5077754;28;20040;-81
2023/11/08 00:28:27;;;;;;;12.00;3.42;;;;;;;;;;5077939;28;20494;-81
2023/11/08 00:30:53;;;;;;;2.92;1.98;;;;;;;;;;5077542;28;20571;-81
2023/11/08 00:33:19;;;;;;;5.38;2.40;;;;;;;;;;5078085;28;20111;-81
2023/11/08 00:35:45;;;;;;;1.75;1.45;;;;;;;;;;5078702;28;20099;-82
2023/11/08 00:38:11;;;;;;;3.47;1.40;;;;;;;;;;5078824;28;20485;-81
2023/11/08 00:40:37;;;;;;;1.65;1.00;;;;;;;;;;5078739;28;20044;-81
2023/11/08 00:43:03;;;;;;;3.17;1.77;;;;;;;;;;5078516;28;20024;-81
2023/11/08 00:45:29;;;;;;;1.98;1.50;;;;;;;;;;5078654;28;20097;-81
2023/11/08 00:47:55;;;;;;;4.63;1.75;;;;;;;;;;5078333;28;20032;-81
2023/11/08 00:50:22;;;;;;;6.05;1.65;;;3.80;96.20;;;;;;5077748;28;20021;-81
2023/11/08 00:52:51;;;;;;;7.53;2.10;;;;;;;;;;5078126;28;20031;-82
2023/11/08 00:55:17;;;;;;;11.73;1.85;;;;;;;;;;5077411;28;20016;-82
2023/11/08 00:57:43;;;;;;;4.70;2.22;;;;;;;;;;5076273;28;20024;-81
2023/11/08 01:00:09;;;;;;;5.05;2.65;;;3.80;99.90;;;;;;5077850;28;20553;-82
2023/11/08 01:02:35;;;;;;;2.20;1.63;;;3.20;99.90;;;;;;5077913;28;20515;-81
2023/11/08 01:05:00;;;;;;;5.40;1.95;;;;;;;;;;5077611;28;20016;-81
2023/11/08 01:07:27;;;;;;;4.55;1.80;;;;;;;;;;5078632;28;20032;-81
2023/11/08 01:09:52;;;;;;;3.67;1.77;;;3.50;99.90;;;;;;5077360;28;20021;-81
2023/11/08 01:12:18;;;;;;;4.70;2.30;;;;;;;;;;5077369;28;20343;-81
2023/11/08 01:14:44;;;;;;;1.33;1.23;;;;;;;;;;5077529;28;20221;-81
2023/11/08 01:17:11;;;;;;;1.65;1.17;;;;;;;;;;5077786;28;20115;-81
2023/11/08 01:19:36;;;;;;;13.13;2.83;;;;;;;;;;5075574;28;20021;-81
2023/11/08 01:22:06;;;;;;;3.47;1.80;;;;;;;;;;5076741;28;20508;-81
2023/11/08 01:24:32;;;;;;;1.85;1.60;;;3.60;97.10;;;;;;5077256;28;20037;-82
2023/11/08 01:27:00;;;;;;;1.98;1.50;;;;;;;;;;5077371;28;20175;-82
2023/11/08 01:29:26;;;;;;;4.53;1.83;;;3.80;99.90;;;;;;5077569;28;20488;-82
2023/11/08 01:31:54;;;;;;;4.22;1.77;;;3.60;99.90;;;;;;5077710;28;20032;-81
2023/11/08 01:34:20;;;;;;;11.00;2.90;;;;;;;;;;5077098;28;20027;-82
2023/11/08 01:36:46;;;;;;;4.07;2.53;;;;;;;;;;5077409;28;20028;-81
2023/11/08 01:39:12;;;;;;;6.43;2.80;;;;;;;;;;5077967;28;20024;-81
2023/11/08 01:41:38;;;;;;;10.32;3.60;;;;;;;;;;5077627;28;20025;-81
2023/11/08 01:44:04;;;;;;;13.13;3.30;;;;;;;;;;5076771;28;20052;-82
2023/11/08 01:46:31;;;;;;;3.72;1.85;;;;;;;;;;5077574;28;20484;-81
2023/11/08 01:48:58;;;;;;;4.63;2.50;;;3.20;98.30;;;;;;5075924;28;20433;-81
2023/11/08 01:51:25;;;;;;;;;;;2.80;97.50;;;;;;5077624;28;20147;-81
2023/11/08 01:53:52;;;;;;;4.45;1.33;;;3.20;99.90;;;;;;5076035;28;20288;-81
2023/11/08 01:56:18;;;;;;;;;;;3.40;97.50;;;;;;5077683;28;20055;-81
2023/11/08 01:58:45;;;;;;;2.72;1.27;;;;;;;;;;5077603;28;20342;-82
2023/11/08 02:01:11;;;;;;;2.15;1.17;;;3.20;99.20;;;;;;5078323;28;20446;-81
2023/11/08 02:03:38;;;;;;;2.45;1.55;;;3.30;98.00;;;;;;5077642;28;20074;-81
2023/11/08 02:06:04;;;;;;;5.78;1.08;;;3.70;98.30;;;;;;5077086;28;20067;-81
2023/11/08 02:08:31;;;;;;;3.58;1.90;;;3.40;97.50;;;;;;5077290;28;20107;-82
2023/11/08 02:10:58;;;;;;;1.20;1.10;;;3.40;97.50;;;;;;5077057;28;20021;-81
2023/11/08 02:13:24;;;;;;;2.70;1.13;;;3.50;97.60;;;;;;5077736;28;20040;-81
2023/11/08 02:15:50;;;;;;;7.82;2.08;;;;;;;;;;5077602;28;20020;-82
2023/11/08 02:18:16;;;;;;;2.40;1.33;;;3.40;99.90;;;;;;5077090;28;20059;-81
2023/11/08 02:20:42;;;;;;;1.33;1.13;;;;;;;;;;5076691;28;20060;-81
2023/11/08 02:23:08;;;;;;;2.03;1.10;;;;;;;;;;5078442;28;20028;-81
2023/11/08 02:25:34;;;;;;;4.65;1.30;;;;;;;;;;5081128;28;20047;-82
2023/11/08 02:28:00;;;;;;;1.55;1.20;;;;;;;;;;5080093;28;20507;-81
2023/11/08 02:30:27;;;;;;;1.65;1.00;;;;;;;;;;5080432;28;20490;-82
2023/11/08 02:32:53;;;;;;;4.47;1.53;;;;;;;;;;5080926;28;20048;-81
2023/11/08 02:35:20;;;;;;;3.00;1.58;;;;;;;;;;5079749;28;20457;-82
2023/11/08 02:37:47;;;;;;;1.85;1.10;;;3.20;97.60;;;;;;5081705;28;20021;-82
2023/11/08 02:40:13;;;;;;;0.95;0.70;;;;;;;;;;5080019;28;20078;-82
2023/11/08 02:42:40;;;;;;;1.85;0.88;;;3.30;97.50;;;;;;5080572;28;20123;-81
2023/11/08 02:45:06;;;;;;;2.10;1.17;;;3.50;99.20;;;;;;5079381;28;20130;-81
2023/11/08 02:47:32;;;;;;;2.42;1.40;;;3.20;99.90;;;;;;5079497;28;20070;-81
2023/11/08 02:49:58;;;;;;;1.00;0.82;;;;;;;;;;5080102;28;20056;-82
2023/11/08 02:52:25;;;;;;;2.67;1.27;;;;;;;;;;5080504;28;20473;-82
2023/11/08 02:54:52;;;;;;;7.65;1.80;;;;;;;;;;5079935;28;20597;-82
2023/11/08 02:57:18;;;;;;;2.22;1.42;;;3.40;99.90;;;;;;5080805;28;20020;-82
2023/11/08 02:59:44;;;;;;;1.38;1.27;;;;;;;;;;5080696;28;20040;-81
2023/11/08 03:02:10;;;;;;;1.38;1.13;;;;;;;;;;5078948;28;20020;-82
2023/11/08 03:04:38;;;;;;;0.90;0.90;;;3.20;98.10;;;;;;5079292;28;20032;-82
2023/11/08 03:07:04;;;;;;;1.48;1.30;;;;;;;;;;5080041;28;20036;-81
2023/11/08 03:09:30;;;;;;;3.03;1.70;;;3.20;98.00;;;;;;5079902;28;20054;-82
2023/11/08 03:11:58;;;;;;;0.70;0.70;;;3.40;99.90;;;;;;5080380;28;20052;-81
2023/11/08 03:14:25;;;;;;;0.60;0.60;;;;;;;;;;5077626;28;20373;-81
2023/11/08 03:16:51;;;;;;;1.40;1.00;;;;;;;;;;5079564;28;20020;-81
2023/11/08 03:19:17;;;;;;;2.22;1.13;;;3.60;99.90;;;;;;5079368;28;20519;-81
2023/11/08 03:21:49;;;;;;;0.80;0.80;;;3.50;99.90;;;;;;5079874;28;20051;-81
2023/11/08 03:24:15;;;;;;;1.27;0.95;;;;;;;;;;5077185;28;20039;-81
2023/11/08 03:26:44;;;;;;;3.63;1.00;;;3.80;99.90;;;;;;5078970;28;20028;-81
2023/11/08 03:29:10;;;;;;;1.20;1.10;;;;;;;;;;5078330;28;20038;-81
2023/11/08 03:31:36;;;;;;;5.50;0.90;;;;;;;;;;5079667;28;20020;-81
2023/11/08 03:34:03;;;;;;;1.77;1.03;;;;;;;;;;5079379;28;20368;-81
2023/11/08 03:36:30;;;;;;;2.25;1.00;;;3.40;99.20;;;;;;5079552;28;20020;-81
2023/11/08 03:38:56;;;;;;;1.95;1.00;;;3.50;99.90;;;;;;5078592;28;20565;-81
2023/11/08 03:41:24;;;;;;;1.20;1.10;;;;;;;;;;5079788;28;20389;-81
2023/11/08 03:43:54;;;;;;;3.00;2.15;;;3.60;98.40;;;;;;5078882;28;20052;-81
2023/11/08 03:46:20;;;;;;;4.15;1.25;;;;;;;;;;5078346;28;20043;-81
2023/11/08 03:48:49;;;;;;;0.88;0.80;;;3.70;99.90;;;;;;5079567;28;20024;-81
2023/11/08 03:51:14;;;;;;;2.13;1.08;;;3.70;99.90;;;;;;5078996;28;20032;-81
2023/11/08 03:53:40;;;;;;;3.70;1.02;;;;;;;;;;5078556;28;20485;-81
2023/11/08 03:56:06;;;;;;;1.73;0.95;;;3.90;99.90;;;;;;5078396;28;20033;-81
2023/11/08 03:58:32;;;;;;;1.15;0.95;;;;;;;;;;5078441;28;20031;-81
2023/11/08 04:00:58;;;;;;;2.78;1.40;;;;;;;;;;5079053;28;20024;-80
2023/11/08 04:03:24;;;;;;;3.67;1.17;;;;;;;;;;5079378;28;20035;-81
2023/11/08 04:05:52;;;;;;;2.92;1.08;;;;;;;;;;5079288;28;20111;-81
2023/11/08 04:08:17;;;;;;;1.58;0.88;;;4.30;99.90;;;;;;5078578;28;20479;-81
2023/11/08 04:10:43;;;;;;;10.65;2.13;;;;;;;;;;5078759;28;20031;-81
2023/11/08 04:13:09;;;;;;;1.67;1.27;;;;;;;;;;5078806;28;20424;-81
2023/11/08 04:15:35;;;;;;;5.90;1.73;;;;;;;;;;5078823;28;20027;-81
2023/11/08 04:18:01;;;;;;;4.25;1.42;;;;;;;;;;5078999;28;20034;-81
2023/11/08 04:20:27;;;;;;;1.05;0.98;;;;;;;;;;5077521;28;20417;-81
2023/11/08 04:22:53;;;;;;;4.63;1.17;;;;;;;;;;5078698;28;20028;-81
2023/11/08 04:25:19;;;;;;;1.30;1.08;;;;;;;;;;5078758;28;20028;-81
2023/11/08 04:27:45;;;;;;;10.85;1.50;;;;;;;;;;5077803;28;20036;-81
2023/11/08 04:30:12;;;;;;;4.40;1.83;;;3.40;98.10;;;;;;5078216;28;20157;-81
2023/11/08 04:32:39;;;;;;;3.95;2.13;;;;;;;;;;5077541;28;20036;-81
2023/11/08 04:35:05;;;;;;;8.23;2.08;;;;;;;;;;5078593;28;20042;-81
2023/11/08 04:37:31;;;;;;;5.88;1.50;;;3.20;99.90;;;;;;5077892;28;20032;-81
2023/11/08 04:39:57;;;;;;;1.13;1.02;;;;;;;;;;5076711;28;20599;-81
2023/11/08 04:42:23;;;;;;;1.50;0.70;;;;;;;;;;5078389;28;20024;-81
2023/11/08 04:44:48;;;;;;;0.90;0.90;;;3.20;99.90;;;;;;5077898;28;20050;-80
2023/11/08 04:47:18;;;;;;;1.73;0.70;;;;;;;;;;5076565;28;20036;-81
2023/11/08 04:49:48;;;;;;;5.57;1.38;;;3.40;98.70;;;;;;5077381;28;20024;-81
2023/11/08 04:52:17;;;;;;;3.95;1.45;;;3.40;98.60;;;;;;5077185;28;20043;-81
2023/11/08 04:54:45;;;;;;;2.00;1.52;;;3.30;98.40;;;;;;5077212;28;20511;-81
2023/11/08 04:57:16;;;;;;;6.03;2.03;;;;;;;;;;5077944;28;20431;-81
2023/11/08 04:59:42;;;;;;;1.83;0.90;;;;;;;;;;5078212;28;20509;-81
2023/11/08 05:02:09;;;;;;;1.00;0.90;;;3.30;99.90;;;;;;5077473;28;20505;-80
2023/11/08 05:04:35;;;;;;;2.20;0.77;;;3.10;99.90;;;;;;5077678;28;20077;-81
2023/11/08 05:07:01;;;;;;;2.28;0.77;;;;;;;;;;5077874;28;20061;-81
2023/11/08 05:09:26;;;;;;;5.63;0.75;;;3.10;99.90;;;;;;5078367;28;20028;-81
2023/11/08 05:11:52;;;;;;;1.17;0.95;;;;;;;;;;5078507;28;20399;-80
2023/11/08 05:14:18;;;;;;;0.98;0.90;;;;;;;;;;5076172;28;20027;-80
2023/11/08 05:16:45;;;;;;;1.60;1.02;;;;;;;;;;5076374;28;20032;-80
2023/11/08 05:19:11;;;;;;;1.27;1.00;;;;;;;;;;5077992;28;20670;-81
2023/11/08 05:21:37;;;;;;;2.75;1.30;;;;;;;;;;5075825;28;20028;-81
2023/11/08 05:24:03;;;;;;;3.10;1.35;;;;;;;;;;5077636;28;20107;-81
2023/11/08 05:26:29;;;;;;;1.17;1.08;;;;;;;;;;5077279;28;20044;-80
2023/11/08 05:28:55;;;;;;;3.17;1.63;;;;;;;;;;5077547;28;20046;-81
2023/11/08 05:31:23;;;;;;;4.20;2.47;;;;;;;;;;5076523;28;20031;-81
2023/11/08 05:33:48;;;;;;;;;;;2.90;99.30;;;;;;5078651;28;20023;-81
2023/11/08 05:36:15;;;;;;;2.83;1.40;;;2.70;99.80;;;;;;5077312;28;19904;-81
2023/11/08 05:38:42;;;;;;;2.08;1.00;;;;;;;;;;5077026;28;20024;-81
2023/11/08 05:41:08;;;;;;;0.70;0.70;;;;;;;;;;5077345;28;20701;-80
2023/11/08 05:43:34;;;;;;;2.13;1.50;;;;;;;;;;5076974;28;20523;-80
2023/11/08 05:46:00;;;;;;;4.88;1.38;;;;;;;;;;5077050;28;20039;-81
2023/11/08 05:48:27;;;;;;;1.48;1.10;;;;;;;;;;5077672;28;20029;-81
2023/11/08 05:50:53;;;;;;;1.23;0.98;;;;;;;;;;5078057;28;20043;-81
2023/11/08 05:53:20;;;;;;;4.15;1.23;;;;;;;;;;5076027;28;20040;-81
2023/11/08 05:55:46;;;;;;;0.70;0.70;;;2.60;99.90;;;;;;5077452;28;20013;-81
2023/11/08 05:58:12;;;;;;;1.15;1.00;;;;;;;;;;5078226;28;20097;-82
2023/11/08 06:00:38;;;;;;;1.52;0.82;;;;;;;;;;5081640;28;20502;-81
2023/11/08 06:03:04;;;;;;;3.95;2.03;;;;;;;;;;5081009;28;20032;-81
2023/11/08 06:05:30;;;;;;;2.10;1.35;;;2.50;99.90;;;;;;5081159;28;20028;-81
2023/11/08 06:07:58;;;;;;;1.02;0.93;;;2.50;99.90;;;;;;5081113;28;20059;-81
2023/11/08 06:10:24;;;;;;;3.45;1.30;;;;;;;;;;5080731;28;20016;-81
2023/11/08 06:12:50;;;;;;;1.27;1.17;;;;;;;;;;5081633;28;20106;-81
2023/11/08 06:15:16;;;;;;;1.58;1.33;;;;;;;;;;5080988;28;20221;-81
2023/11/08 06:17:42;;;;;;;2.30;1.10;;;;;;;;;;5076514;28;20035;-80
2023/11/08 06:20:09;;;;;;;5.25;0.88;;;;;;;;;;5079927;28;20025;-80
2023/11/08 06:22:35;;;;;;;6.10;2.33;;;;;;;;;;5079189;28;20496;-81
2023/11/08 06:25:01;;;;;;;5.10;2.70;;;2.80;99.90;;;;;;5078665;28;20462;-80
2023/11/08 06:27:27;;;;;;;12.82;3.53;;;;;;;;;;5077201;28;20059;-80
2023/11/08 06:29:53;;;;;;;8.43;2.30;;;;;;;;;;5075569;28;20035;-81
2023/11/08 06:32:20;;;;;;;4.15;2.22;;;;;;;;;;5076860;28;20405;-81
2023/11/08 06:34:46;;;;;;;10.65;1.70;;;;;;;;;;5080312;28;20449;-80
2023/11/08 06:37:13;;;;;;;1.75;1.30;;;3.30;99.90;;;;;;5079929;28;20024;-81
2023/11/08 06:39:39;;;;;;;4.20;1.90;;;;;;;;;;5080535;28;20030;-94
2023/11/08 06:42:05;;;;;;;1.90;1.50;;;;;;;;;;5082641;28;20270;-88
2023/11/08 06:44:31;;;;;;;7.65;2.53;;;2.60;99.70;;;;;;5083223;28;20048;-91
2023/11/08 06:46:57;;;;;;;4.97;2.70;;;;;;;;;;5080925;28;20032;-92
2023/11/08 06:49:23;;;;;;;3.70;2.13;;;;;;;;;;5081342;28;20084;-89
2023/11/08 06:51:50;;;;;;;6.03;2.20;;;;;;;;;;5080723;28;20433;-88
2023/11/08 06:54:16;;;;;;;7.30;1.75;;;3.10;99.90;;;;;;5080778;28;20355;-81
2023/11/08 06:56:42;;;;;;;3.25;1.63;;;;;;;;;;5079156;28;20035;-81
2023/11/08 06:59:08;;;;;;;1.33;0.95;;;;;;;;;;5078810;28;20115;-81
2023/11/08 07:01:35;;;;;;;7.18;2.55;;;;;;;;;;5077851;28;20107;-82
2023/11/08 07:04:01;;;;;;;8.82;2.10;;;;;;;;;;5079006;28;20089;-82
2023/11/08 07:06:27;;;;;;;12.23;2.75;;;;;;;;;;5079758;28;20035;-82
2023/11/08 07:08:53;;;;;;;9.40;2.50;;;;;;;;;;5078366;28;20465;-82
2023/11/08 07:11:19;;;;;;;2.20;1.65;;;;;;;;;;5078717;28;20103;-81
2023/11/08 07:13:45;;;;;;;2.30;1.67;;;;;;;;;;5078816;28;20024;-93
2023/11/08 07:16:11;;;;;;;2.38;1.67;;;;;;;;;;5079260;28;20029;-87
2023/11/08 07:18:37;;;;;;;3.58;2.25;;;;;;;;;;5077053;28;20490;-84
2023/11/08 07:21:03;;;;;;;3.83;2.40;;;;;;;;;;5080210;28;20073;-92
2023/11/08 07:23:29;;;;;;;11.77;3.42;;;;;;;;;;5082389;28;20024;-85
2023/11/08 07:25:55;;;;;;;19.02;5.60;;;;;;;;;;5078543;28;20047;-90
2023/11/08 07:28:21;;;;;;;24.85;7.38;;;;;;;;;;5081036;28;20040;-93
2023/11/08 07:30:47;;;;;;;28.20;5.85;;;;;;;;;;5082238;28;20028;-93
2023/11/08 07:33:13;;;;;;;22.83;7.22;;;;;;;;;;5079668;28;20021;-81
2023/11/08 07:35:41;;;;;;;26.13;7.40;;;;;;;;;;5078616;28;20489;-88
2023/11/08 07:38:08;;;;;;;14.23;5.55;;;;;;;;;;5081597;28;20036;-94
2023/11/08 07:40:34;;;;;;;19.20;10.55;;;;;;;;;;5082373;28;20019;-91
2023/11/08 07:43:00;;;;;;;25.67;8.35;;;;;;;;;;5079994;28;20035;-95
2023/11/08 07:45:26;;;;;;;20.15;7.40;;;;;;;;;;5079553;28;20075;-88
2023/11/08 07:47:52;;;;;;;20.65;7.22;;;;;;;;;;5078335;28;20051;-90
2023/11/08 07:50:19;;;;;;;31.63;9.50;;;;;;;;;;5082216;28;20024;-92
2023/11/08 07:52:45;;;;;;;17.73;7.22;;;;;;;;;;5079635;28;20036;-91
2023/11/08 07:55:11;;;;;;;17.55;8.13;;;;;;;;;;5079226;28;20047;-94
2023/11/08 07:57:39;;;;;;;18.75;9.45;;;16.60;70.00;;;;;;5080960;28;20381;-95
2023/11/08 08:00:08;;;;;;;18.55;8.95;;;21.30;68.30;;;;;;5079956;28;20025;-94
2023/11/08 08:02:34;;;;;;;14.23;7.50;;;;;;;;;;5079956;28;20502;-96
2023/11/08 08:05:00;;;;;;;9.38;4.50;;;;;;;;;;5087650;28;20481;-94
2023/11/08 08:07:27;;;;;;;4.63;2.30;;;;;;;;;;5079742;28;20040;-96
2023/11/08 08:09:54;;;;;;;2.33;1.83;;;;;;;;;;5079821;28;20017;-95
2023/11/08 08:12:20;;;;;;;5.65;3.38;;;;;;;;;;5079140;28;20524;-94
2023/11/08 08:14:46;;;;;;;11.00;5.10;;;;;;;;;;5078367;28;20028;-95
2023/11/08 08:17:12;;;;;;;8.10;5.50;;;;;;;;;;5080668;28;20509;-84
2023/11/08 08:19:38;;;;;;;13.40;6.20;;;;;;;;;;5077785;28;20024;-83
2023/11/08 08:22:05;;;;;;;16.90;8.75;;;;;;;;;;5077104;28;20706;-90
2023/11/08 08:24:31;;;;;;;13.70;6.88;;;;;;;;;;5076165;28;20049;-91
2023/11/08 08:26:59;;;;;;;8.67;5.73;;;;;;;;;;5077765;28;20062;-90
2023/11/08 08:29:26;;;;;;;5.47;3.25;;;32.70;42.30;;;;;;5077659;28;20162;-90
2023/11/08 08:31:52;;;;;;;3.30;1.73;;;;;;;;;;5078249;28;20036;-83
2023/11/08 08:34:18;;;;;;;15.25;6.35;;;;;;;;;;5077339;28;20519;-90
2023/11/08 08:36:44;;;;;;;16.05;6.53;;;;;;;;;;5078114;28;20031;-90
2023/11/08 08:39:15;;;;;;;17.58;8.13;;;;;;;;;;5077100;28;20091;-90
2023/11/08 08:41:43;;;;;;;11.73;5.75;;;28.10;35.40;;;;;;5076572;28;20028;-91
2023/11/08 08:44:09;;;;;;;14.55;5.97;;;;;;;;;;5077636;28;20261;-92
2023/11/08 08:46:37;;;;;;;8.95;5.70;;;25.10;42.50;;;;;;5079530;28;20195;-93
2023/11/08 08:49:03;;;;;;;6.95;4.00;;;;;;;;;;5078933;28;20063;-93
2023/11/08 08:51:29;;;;;;;13.13;6.22;;;;;;;;;;5078734;28;20032;-84
2023/11/08 08:53:55;;;;;;;9.45;3.75;;;;;;;;;;5076630;28;20074;-83
2023/11/08 08:56:23;;;;;;;8.93;4.75;;;;;;;;;;5075726;28;20028;-83
2023/11/08 08:58:49;;;;;;;7.80;3.90;;;;;;;;;;5076997;28;20086;-93
2023/11/08 09:01:18;;;;;;;7.72;3.83;;;;;;;;;;5080101;28;20032;-92
2023/11/08 09:03:44;;;;;;;7.22;3.95;;;20.40;45.00;;;;;;5077764;28;20530;-83
2023/11/08 09:06:10;;;;;;;7.25;3.53;;;;;;;;;;5077920;28;20063;-86
2023/11/08 09:08:36;;;;;;;5.95;3.47;;;;;;;;;;5075902;28;20979;-86
2023/11/08 09:11:03;;;;;;;14.07;4.05;;;;;;;;;;5075543;28;20061;-83
2023/11/08 09:13:29;;;;;;;12.77;4.70;;;;;;;;;;5078360;28;20163;-89
2023/11/08 09:15:56;;;;;;;9.87;4.27;;;;;;;;;;5077587;28;20032;-87
2023/11/08 09:18:21;;;;;;;8.48;4.40;;;;;;;;;;5077565;28;20017;-87
2023/11/08 09:20:48;;;;;;;6.53;3.47;;;;;;;;;;5077302;28;20460;-86
2023/11/08 09:23:14;;;;;;;13.05;5.47;;;;;;;;;;5076196;28;20024;-81
2023/11/08 09:25:40;;;;;;;28.17;7.85;;;;;;;;;;5077156;28;20042;-82
2023/11/08 09:28:06;;;;;;;16.10;6.50;;;;;;;;;;5078668;28;20028;-90
2023/11/08 09:30:33;;;;;;;6.85;4.03;;;33.10;33.00;;;;;;5077114;28;20021;-92
2023/11/08 09:32:59;;;;;;;;;;;38.30;31.00;;;;;;5080887;28;20032;-92
2023/11/08 09:35:25;;;;;;;4.07;2.53;;;;;;;;;;5082747;28;20390;-93
2023/11/08 09:37:55;;;;;;;2.53;2.15;;;43.70;27.80;;;;;;5082067;28;20048;-79
2023/11/08 09:40:21;;;;;;;6.93;2.65;;;45.20;27.40;;;;;;5081734;28;20031;-86
2023/11/08 09:42:48;;;;;;;2.38;1.42;;;46.00;26.30;;;;;;5081518;28;20031;-81
2023/11/08 09:45:17;;;;;;;2.72;1.38;;;46.90;26.20;;;;;;5080675;28;20059;-90
2023/11/08 09:47:45;;;;;;;0.88;0.60;;;47.50;24.60;;;;;;5081649;28;20278;-90
2023/11/08 09:50:12;;;;;;;2.78;0.95;;;;;;;;;;5079761;28;20029;-83
2023/11/08 09:52:38;;;;;;;2.35;0.88;;;;;;;;;;5080008;28;20058;-83
2023/11/08 09:55:05;;;;;;;1.10;0.52;;;47.60;24.00;;;;;;5080577;28;20467;-83
2023/11/08 09:57:34;;;;;;;2.13;1.13;;;47.20;23.80;;;;;;5079218;28;20027;-82
2023/11/08 10:00:00;;;;;;;1.48;0.50;;;47.20;24.70;;;;;;5078735;28;20070;-82
2023/11/08 10:02:27;;;;;;;;;;;47.30;23.90;;;;;;5080294;28;20020;-85
2023/11/08 10:04:53;;;;;;;1.23;0.50;;;46.70;23.20;;;;;;5080328;28;19957;-81
2023/11/08 10:07:19;;;;;;;1.40;0.47;;;46.30;23.50;;;;;;5079863;28;20032;-80
2023/11/08 10:09:46;;;;;;;1.33;0.40;;;;;;;;;;5079430;28;20384;-81
2023/11/08 10:12:13;;;;;;;0.57;0.47;;;;;;;;;;5079353;28;20036;-81
2023/11/08 10:14:40;;;;;;;1.33;0.52;;;;;;;;;;5079913;28;20066;-89
2023/11/08 10:17:06;;;;;;;0.30;0.20;;;45.10;21.90;;;;;;5079823;28;20039;-88
2023/11/08 10:19:44;;;;;;;0.47;0.47;;;43.80;21.40;;;;;;5079917;28;20024;-87
2023/11/08 10:22:22;;;;;;;2.42;0.50;;;43.10;22.10;;;;;;5078525;28;20032;-84
2023/11/08 10:25:00;;;;;;;0.82;0.80;;;40.00;28.30;;;;;;5080185;28;20048;-83
2023/11/08 10:27:27;;;;;;;1.17;0.38;;;38.10;28.10;;;;;;5081301;28;20025;-85
2023/11/08 10:29:56;;;;;;;0.88;0.30;;;36.20;28.60;;;;;;5080693;28;20195;-87
2023/11/08 10:32:24;;;;;;;0.68;0.35;;;34.90;29.50;;;;;;5079851;28;20455;-87
2023/11/08 10:34:51;;;;;;;0.43;0.30;;;35.20;22.90;;;;;;5079982;28;20401;-89
2023/11/08 10:37:27;;;;;;;0.20;0.20;;;33.90;22.60;;;;;;5080628;28;20131;-86
2023/11/08 10:39:56;;;;;;;2.28;0.55;;;30.60;23.90;;;;;;5079527;28;20493;-86
2023/11/08 10:42:22;;;;;;;0.40;0.40;;;29.80;24.80;;;;;;5079354;28;20497;-85
2023/11/08 10:44:48;;;;;;;0.45;0.30;;;28.70;33.70;;;;;;5078131;28;20051;-86
2023/11/08 10:47:15;;;;;;;0.35;0.25;;;;;;;;;;5079517;28;20031;-89
2023/11/08 10:49:41;;;;;;;0.95;0.30;;;;;;;;;;5077767;28;20037;-92
2023/11/08 10:52:10;;;;;;;0.73;0.32;;;26.30;30.60;;;;;;5080231;28;20035;-88
2023/11/08 10:54:38;;;;;;;0.30;0.30;;;;;;;;;;5081185;28;20016;-89
2023/11/08 10:57:05;;;;;;;0.77;0.40;;;24.60;28.40;;;;;;5078437;28;20128;-89
2023/11/08 10:59:36;;;;;;;0.63;0.60;;;23.70;29.30;;;;;;5081070;28;20442;-90
2023/11/08 11:02:30;;;;;;;0.40;0.40;;;23.10;29.80;;;;;;5080509;28;20032;-81
2023/11/08 11:05:02;;;;;;;0.32;0.32;;;22.60;30.80;;;;;;5079268;28;20435;-84
2023/11/08 11:07:30;;;;;;;0.40;0.40;;;22.20;31.30;;;;;;5078546;28;20028;-82
2023/11/08 11:09:55;;;;;;;;;;;22.20;31.40;;;;;;5080483;28;20518;-82
2023/11/08 11:12:44;;;;;;;0.20;0.20;;;21.40;32.40;;;;;;5079933;28;20022;-83
2023/11/08 11:15:20;;;;;;;0.43;0.40;;;20.90;33.00;;;;;;5077977;28;20031;-82
2023/11/08 11:17:52;;;;;;;0.40;0.40;;;20.60;33.70;;;;;;5078505;28;20032;-83
2023/11/08 11:20:20;;;;;;;0.40;0.40;;;20.70;33.90;;;;;;5079283;28;20118;-84
2023/11/08 11:22:46;;;;;;;0.57;0.47;;;;;;;;;;5077892;28;20202;-83
2023/11/08 11:25:48;;;;;;;0.38;0.38;;;20.80;34.30;;;;;;5078384;28;20036;-83
2023/11/08 11:28:14;;;;;;;1.15;0.65;;;;;;;;;;5078188;28;20077;-82
2023/11/08 11:30:41;;;;;;;0.50;0.50;;;;;;;;;;5078385;28;20937;-84
2023/11/08 11:33:07;;;;;;;0.30;0.30;;;;;;;;;;5078576;28;20587;-82
2023/11/08 11:35:33;;;;;;;1.30;0.68;;;;;;;;;;5075328;28;20099;-83
2023/11/08 11:38:12;;;;;;;0.40;0.40;;;19.60;36.30;;;;;;5078484;28;20507;-83
2023/11/08 11:40:39;;;;;;;0.73;0.43;;;;;;;;;;5077745;28;20388;-83
2023/11/08 11:43:29;;;;;;;0.45;0.40;;;19.10;39.00;;;;;;5078965;28;20130;-84
2023/11/08 11:45:57;;;;;;;1.00;0.60;;;19.10;37.50;;;;;;5078572;28;20032;-82
2023/11/08 11:48:22;;;;;;;;;;;19.20;38.00;;;;;;5078411;28;20074;-83
2023/11/08 11:50:48;;;;;;;0.40;0.40;;;;;;;;;;5077452;28;19907;-83
2023/11/08 11:53:16;;;;;;;0.60;0.50;;;19.00;37.70;;;;;;5078566;28;20027;-83
2023/11/08 11:55:41;;;;;;;0.93;0.63;;;;;;;;;;5077369;28;20077;-82
2023/11/08 11:58:11;;;;;;;1.80;0.70;;;19.10;38.00;;;;;;5077847;28;20020;-82
2023/11/08 12:00:37;;;;;;;0.57;0.57;;;;;;;;;;5077062;28;20047;-82
2023/11/08 12:03:04;;;;;;;0.80;0.80;;;;;;;;;;5077117;28;20035;-82
2023/11/08 12:05:30;;;;;;;0.50;0.50;;;;;;;;;;5077086;28;20032;-83
2023/11/08 12:07:56;;;;;;;0.60;0.60;;;18.80;52.10;;;;;;5077567;28;20366;-82
2023/11/08 12:10:26;;;;;;;0.63;0.63;;;18.80;38.60;;;;;;5078183;28;20122;-83
2023/11/08 12:12:55;;;;;;;0.40;0.40;;;18.80;38.40;;;;;;5078340;28;20024;-83
2023/11/08 12:15:22;;;;;;;0.70;0.68;;;;;;;;;;5077679;28;20031;-82
2023/11/08 12:17:52;;;;;;;0.63;0.60;;;18.80;52.90;;;;;;5077783;28;20020;-83
2023/11/08 12:20:29;;;;;;;0.45;0.45;;;18.90;38.50;;;;;;5077956;28;20028;-84
2023/11/08 12:22:55;;;;;;;2.35;0.60;;;;;;;;;;5076032;28;20515;-82
2023/11/08 12:25:22;;;;;;;0.90;0.73;;;;;;;;;;5076936;28;20025;-84
2023/11/08 12:27:56;;;;;;;1.35;0.50;;;18.80;38.70;;;;;;5076473;28;20032;-81
2023/11/08 12:30:23;;;;;;;1.23;0.70;;;18.90;52.80;;;;;;5077267;28;20028;-83
2023/11/08 12:32:50;;;;;;;1.08;0.80;;;;;;;;;;5077317;28;20396;-83
2023/11/08 12:35:18;;;;;;;3.97;0.73;;;18.70;38.90;;;;;;5076143;28;20485;-81
2023/11/08 12:37:44;;;;;;;2.65;1.40;;;;;;;;;;5077612;28;20119;-84
2023/11/08 12:40:19;;;;;;;1.02;0.80;;;19.00;53.10;;;;;;5077631;28;20020;-87
2023/11/08 12:42:46;;;;;;;1.13;0.60;;;;;;;;;;5078074;28;20031;-87
2023/11/08 12:45:12;;;;;;;0.73;0.73;;;;;;;;;;5075830;28;20151;-83
2023/11/08 12:47:38;;;;;;;0.82;0.80;;;;;;;;;;5077219;28;20107;-79
2023/11/08 12:50:13;;;;;;;2.38;1.38;;;18.90;39.60;;;;;;5075920;28;20564;-84
2023/11/08 12:52:39;;;;;;;0.50;0.50;;;;;;;;;;5077481;28;20054;-83
2023/11/08 12:55:05;;;;;;;1.60;0.90;;;18.70;39.40;;;;;;5076088;28;20031;-83
2023/11/08 12:57:31;;;;;;;0.70;0.70;;;;;;;;;;5077740;28;20032;-81
2023/11/08 12:59:59;;;;;;;0.85;0.50;;;;;;;;;;5078672;28;20058;-88
2023/11/08 13:02:25;;;;;;;1.05;0.93;;;;;;;;;;5077440;28;20020;-82
2023/11/08 13:04:51;;;;;;;0.70;0.70;;;;;;;;;;5077248;28;20024;-82
2023/11/08 13:07:16;;;;;;;0.98;0.63;;;18.40;54.30;;;;;;5076824;28;20047;-81
2023/11/08 13:09:42;;;;;;;0.57;0.50;;;;;;;;;;5076320;28;20100;-81
2023/11/08 13:12:10;;;;;;;0.40;0.40;;;;;;;;;;5076541;28;20032;-81
2023/11/08 13:14:36;;;;;;;0.50;0.50;;;;;;;;;;5075557;28;20407;-82
2023/11/08 13:17:03;;;;;;;2.47;0.80;;;;;;;;;;5075483;28;20400;-82
2023/11/08 13:19:30;;;;;;;1.25;0.80;;;;;;;;;;5076671;28;20028;-81
2023/11/08 13:21:56;;;;;;;1.35;0.60;;;17.80;55.20;;;;;;5076539;28;20051;-82
2023/11/08 13:24:22;;;;;;;0.60;0.60;;;;;;;;;;5076729;28;20473;-82
2023/11/08 13:26:47;;;;;;;0.52;0.50;;;17.80;54.10;;;;;;5076728;28;20108;-82
2023/11/08 13:29:13;;;;;;;0.52;0.40;;;;;;;;;;5077023;28;20055;-82
2023/11/08 13:31:39;;;;;;;0.60;0.60;;;;;;;;;;5072552;28;20041;-82
2023/11/08 13:34:06;;;;;;;0.50;0.50;;;17.20;40.60;;;;;;5073269;28;20044;-82
2023/11/08 13:36:33;;;;;;;0.50;0.50;;;;;;;;;;5076976;28;20389;-82
2023/11/08 13:38:59;;;;;;;0.60;0.50;;;;;;;;;;5076908;28;20028;-83
2023/11/08 13:41:25;;;;;;;1.05;0.60;;;17.60;52.30;;;;;;5076456;28;20031;-83
2023/11/08 13:43:51;;;;;;;0.95;0.60;;;;;;;;;;5076107;28;20278;-83
2023/11/08 13:46:17;;;;;;;0.60;0.60;;;;;;;;;;5076282;28;20028;-83
2023/11/08 13:48:43;;;;;;;1.20;0.60;;;;;;;;;;5067713;28;20504;-83
2023/11/08 13:51:10;;;;;;;0.85;0.57;;;;;;;;;;5074670;28;20525;-83
2023/11/08 13:53:37;;;;;;;0.65;0.50;;;17.10;41.30;;;;;;5074406;28;20024;-83
2023/11/08 13:56:04;;;;;;;1.50;0.77;;;17.10;41.60;;;;;;5076988;28;20115;-81
2023/11/08 13:58:30;;;;;;;1.35;0.60;;;;;;;;;;5072511;28;20028;-83